sensor_id;sensor_type;location;lat;lon;timestamp;pressure;altitude;pressure_sealevel;temperature;humidity
12475;BME280;6302;42.624;23.334;2022-09-09T00:01:22;93563.75;;;17.76;100.00
12475;BME280;6302;42.624;23.334;2022-09-09T00:03:54;93561.00;;;17.79;100.00
12475;BME280;6302;42.624;23.334;2022-09-09T00:06:28;93555.31;;;17.77;100.00
12475;BME280;6302;42.624;23.334;2022-09-09T00:09:02;93553.81;;;17.76;100.00
12475;BME280;6302;42.624;23.334;2022-09-09T00:11:36;93560.34;;;17.75;100.00
12475;BME280;6302;42.624;23.334;2022-09-09T00:14:14;93562.69;;;17.73;100.00
12475;BME280;6302;42.624;23.334;2022-09-09T00:16:49;93561.22;;;17.72;100.00
12475;BME280;6302;42.624;23.334;2022-09-09T00:19:22;93566.97;;;17.71;100.00
12475;BME280;6302;42.624;23.334;2022-09-09T00:22:00;93563.13;;;17.72;100.00
12475;BME280;6302;42.624;23.334;2022-09-09T00:24:38;93554.78;;;17.70;100.00
12475;BME280;6302;42.624;23.334;2022-09-09T00:27:10;93548.66;;;17.69;100.00
12475;BME280;6302;42.624;23.334;2022-09-09T00:29:44;93541.06;;;17.68;100.00
12475;BME280;6302;42.624;23.334;2022-09-09T00:32:13;93535.72;;;17.68;100.00
12475;BME280;6302;42.624;23.334;2022-09-09T00:34:48;93545.34;;;17.65;100.00
12475;BME280;6302;42.624;23.334;2022-09-09T00:37:16;93535.81;;;17.64;100.00
12475;BME280;6302;42.624;23.334;2022-09-09T00:39:46;93527.84;;;17.61;100.00
12475;BME280;6302;42.624;23.334;2022-09-09T00:42:15;93519.09;;;17.60;100.00
12475;BME280;6302;42.624;23.334;2022-09-09T00:44:58;93512.53;;;17.61;100.00
12475;BME280;6302;42.624;23.334;2022-09-09T00:47:43;93519.50;;;17.59;100.00
12475;BME280;6302;42.624;23.334;2022-09-09T00:50:34;93505.34;;;17.58;100.00
12475;BME280;6302;42.624;23.334;2022-09-09T00:53:20;93520.69;;;17.58;100.00
12475;BME280;6302;42.624;23.334;2022-09-09T00:55:54;93522.31;;;17.55;100.00
12475;BME280;6302;42.624;23.334;2022-09-09T00:58:23;93514.69;;;17.53;100.00
12475;BME280;6302;42.624;23.334;2022-09-09T01:00:55;93514.69;;;17.53;100.00
12475;BME280;6302;42.624;23.334;2022-09-09T01:03:30;93513.06;;;17.56;100.00
12475;BME280;6302;42.624;23.334;2022-09-09T01:06:13;93516.81;;;17.59;100.00
12475;BME280;6302;42.624;23.334;2022-09-09T01:09:04;93521.88;;;17.57;100.00
12475;BME280;6302;42.624;23.334;2022-09-09T01:11:41;93519.28;;;17.53;100.00
12475;BME280;6302;42.624;23.334;2022-09-09T01:14:22;93529.28;;;17.52;100.00
12475;BME280;6302;42.624;23.334;2022-09-09T01:16:54;93517.81;;;17.52;100.00
12475;BME280;6302;42.624;23.334;2022-09-09T01:19:31;93520.47;;;17.52;100.00
12475;BME280;6302;42.624;23.334;2022-09-09T01:22:04;93516.69;;;17.49;100.00
12475;BME280;6302;42.624;23.334;2022-09-09T01:24:40;93525.59;;;17.46;100.00
12475;BME280;6302;42.624;23.334;2022-09-09T01:27:12;93517.13;;;17.48;100.00
12475;BME280;6302;42.624;23.334;2022-09-09T01:29:40;93516.81;;;17.46;100.00
12475;BME280;6302;42.624;23.334;2022-09-09T01:32:38;93516.81;;;17.46;100.00
12475;BME280;6302;42.624;23.334;2022-09-09T01:35:07;93511.56;;;17.42;100.00
12475;BME280;6302;42.624;23.334;2022-09-09T01:37:37;93518.09;;;17.41;100.00
12475;BME280;6302;42.624;23.334;2022-09-09T01:40:04;93521.53;;;17.42;100.00
12475;BME280;6302;42.624;23.334;2022-09-09T01:42:33;93532.69;;;17.40;100.00
12475;BME280;6302;42.624;23.334;2022-09-09T01:45:00;93535.47;;;17.37;100.00
12475;BME280;6302;42.624;23.334;2022-09-09T01:47:27;93527.84;;;17.35;100.00
12475;BME280;6302;42.624;23.334;2022-09-09T01:49:53;93527.19;;;17.31;100.00
12475;BME280;6302;42.624;23.334;2022-09-09T01:52:20;93529.03;;;17.34;100.00
12475;BME280;6302;42.624;23.334;2022-09-09T01:54:47;93538.13;;;17.37;100.00
12475;BME280;6302;42.624;23.334;2022-09-09T01:57:18;93542.41;;;17.34;100.00
12475;BME280;6302;42.624;23.334;2022-09-09T02:00:00;93539.84;;;17.31;100.00
12475;BME280;6302;42.624;23.334;2022-09-09T02:02:32;93542.19;;;17.29;100.00
12475;BME280;6302;42.624;23.334;2022-09-09T02:05:12;93536.09;;;17.28;100.00
12475;BME280;6302;42.624;23.334;2022-09-09T02:07:43;93535.44;;;17.24;100.00
12475;BME280;6302;42.624;23.334;2022-09-09T02:10:20;93530.09;;;17.24;100.00
12475;BME280;6302;42.624;23.334;2022-09-09T02:12:49;93537.03;;;17.22;100.00
12475;BME280;6302;42.624;23.334;2022-09-09T02:15:23;93525.78;;;17.14;100.00
12475;BME280;6302;42.624;23.334;2022-09-09T02:17:55;93524.09;;;17.20;100.00
12475;BME280;6302;42.624;23.334;2022-09-09T02:20:25;93506.41;;;17.10;100.00
12475;BME280;6302;42.624;23.334;2022-09-09T02:22:53;93510.78;;;17.17;100.00
12475;BME280;6302;42.624;23.334;2022-09-09T02:25:23;93514.22;;;17.17;100.00
12475;BME280;6302;42.624;23.334;2022-09-09T02:27:51;93514.00;;;17.12;100.00
12475;BME280;6302;42.624;23.334;2022-09-09T02:30:20;93514.44;;;17.10;100.00
12475;BME280;6302;42.624;23.334;2022-09-09T02:32:48;93515.94;;;17.11;100.00
12475;BME280;6302;42.624;23.334;2022-09-09T02:35:19;93511.44;;;17.08;100.00
12475;BME280;6302;42.624;23.334;2022-09-09T02:37:49;93517.66;;;17.05;100.00
12475;BME280;6302;42.624;23.334;2022-09-09T02:40:16;93524.16;;;17.04;100.00
12475;BME280;6302;42.624;23.334;2022-09-09T02:42:45;93526.00;;;17.07;100.00
12475;BME280;6302;42.624;23.334;2022-09-09T02:45:15;93525.38;;;17.03;100.00
12475;BME280;6302;42.624;23.334;2022-09-09T02:47:49;93534.47;;;17.06;100.00
12475;BME280;6302;42.624;23.334;2022-09-09T02:50:20;93545.59;;;17.04;100.00
12475;BME280;6302;42.624;23.334;2022-09-09T02:53:02;93540.25;;;17.04;100.00
12475;BME280;6302;42.624;23.334;2022-09-09T02:55:38;93530.50;;;16.98;100.00
12475;BME280;6302;42.624;23.334;2022-09-09T02:58:10;93543.13;;;16.97;100.00
12475;BME280;6302;42.624;23.334;2022-09-09T03:00:39;93537.75;;;16.97;100.00
12475;BME280;6302;42.624;23.334;2022-09-09T03:03:08;93534.44;;;16.93;100.00
12475;BME280;6302;42.624;23.334;2022-09-09T03:05:35;93524.59;;;16.90;100.00
12475;BME280;6302;42.624;23.334;2022-09-09T03:08:02;93528.78;;;16.91;100.00
12475;BME280;6302;42.624;23.334;2022-09-09T03:10:29;93527.25;;;16.90;100.00
12475;BME280;6302;42.624;23.334;2022-09-09T03:12:56;93533.47;;;16.87;100.00
12475;BME280;6302;42.624;23.334;2022-09-09T03:15:23;93551.03;;;16.88;100.00
12475;BME280;6302;42.624;23.334;2022-09-09T03:17:55;93547.16;;;16.89;100.00
12475;BME280;6302;42.624;23.334;2022-09-09T03:20:24;93536.25;;;16.83;100.00
12475;BME280;6302;42.624;23.334;2022-09-09T03:22:51;93543.53;;;16.83;100.00
12475;BME280;6302;42.624;23.334;2022-09-09T03:25:18;93537.50;;;16.79;100.00
12475;BME280;6302;42.624;23.334;2022-09-09T03:27:45;93539.84;;;16.77;100.00
12475;BME280;6302;42.624;23.334;2022-09-09T03:30:12;93535.03;;;16.72;100.00
12475;BME280;6302;42.624;23.334;2022-09-09T03:32:39;93536.94;;;16.71;100.00
12475;BME280;6302;42.624;23.334;2022-09-09T03:35:06;93543.38;;;16.74;100.00
12475;BME280;6302;42.624;23.334;2022-09-09T03:37:34;93547.25;;;16.73;100.00
12475;BME280;6302;42.624;23.334;2022-09-09T03:40:02;93536.09;;;16.74;100.00
12475;BME280;6302;42.624;23.334;2022-09-09T03:42:29;93533.84;;;16.73;100.00
12475;BME280;6302;42.624;23.334;2022-09-09T03:44:57;93533.09;;;16.72;100.00
12475;BME280;6302;42.624;23.334;2022-09-09T03:47:24;93532.03;;;16.70;100.00
12475;BME280;6302;42.624;23.334;2022-09-09T03:49:51;93524.00;;;16.70;100.00
12475;BME280;6302;42.624;23.334;2022-09-09T03:52:18;93527.88;;;16.69;100.00
12475;BME280;6302;42.624;23.334;2022-09-09T03:54:48;93525.28;;;16.65;100.00
12475;BME280;6302;42.624;23.334;2022-09-09T03:57:15;93531.78;;;16.64;100.00
12475;BME280;6302;42.624;23.334;2022-09-09T03:59:42;93532.66;;;16.61;100.00
12475;BME280;6302;42.624;23.334;2022-09-09T04:02:09;93538.94;;;16.55;100.00
12475;BME280;6302;42.624;23.334;2022-09-09T04:04:36;93534.41;;;16.52;100.00
12475;BME280;6302;42.624;23.334;2022-09-09T04:07:03;93545.47;;;16.54;100.00
12475;BME280;6302;42.624;23.334;2022-09-09T04:09:31;93545.69;;;16.59;100.00
12475;BME280;6302;42.624;23.334;2022-09-09T04:11:59;93541.09;;;16.60;100.00
12475;BME280;6302;42.624;23.334;2022-09-09T04:14:26;93541.75;;;16.64;100.00
12475;BME280;6302;42.624;23.334;2022-09-09T04:16:54;93546.25;;;16.67;100.00
12475;BME280;6302;42.624;23.334;2022-09-09T04:19:22;93548.41;;;16.72;100.00
12475;BME280;6302;42.624;23.334;2022-09-09T04:21:49;93536.00;;;16.78;100.00
12475;BME280;6302;42.624;23.334;2022-09-09T04:24:16;93538.69;;;16.78;100.00
12475;BME280;6302;42.624;23.334;2022-09-09T04:26:43;93536.66;;;16.82;100.00
12475;BME280;6302;42.624;23.334;2022-09-09T04:29:12;93531.31;;;16.82;100.00
12475;BME280;6302;42.624;23.334;2022-09-09T04:31:38;93539.66;;;16.84;100.00
12475;BME280;6302;42.624;23.334;2022-09-09T04:34:07;93542.25;;;16.87;100.00
12475;BME280;6302;42.624;23.334;2022-09-09T04:36:34;93541.72;;;16.92;100.00
12475;BME280;6302;42.624;23.334;2022-09-09T04:39:01;93538.94;;;16.96;100.00
12475;BME280;6302;42.624;23.334;2022-09-09T04:41:28;93549.56;;;17.00;100.00
12475;BME280;6302;42.624;23.334;2022-09-09T04:43:57;93554.47;;;17.01;100.00
12475;BME280;6302;42.624;23.334;2022-09-09T04:46:26;93560.50;;;17.05;100.00
12475;BME280;6302;42.624;23.334;2022-09-09T04:48:53;93558.44;;;17.09;100.00
12475;BME280;6302;42.624;23.334;2022-09-09T04:51:20;93560.28;;;17.12;100.00
12475;BME280;6302;42.624;23.334;2022-09-09T04:53:47;93542.53;;;17.18;100.00
12475;BME280;6302;42.624;23.334;2022-09-09T04:56:16;93529.78;;;17.22;100.00
12475;BME280;6302;42.624;23.334;2022-09-09T04:58:43;93532.69;;;17.28;100.00
12475;BME280;6302;42.624;23.334;2022-09-09T05:01:12;93521.00;;;17.34;100.00
12475;BME280;6302;42.624;23.334;2022-09-09T05:03:41;93534.59;;;17.40;100.00
12475;BME280;6302;42.624;23.334;2022-09-09T05:06:09;93524.09;;;17.45;100.00
12475;BME280;6302;42.624;23.334;2022-09-09T05:08:37;93511.25;;;17.53;100.00
12475;BME280;6302;42.624;23.334;2022-09-09T05:11:04;93501.41;;;17.63;100.00
12475;BME280;6302;42.624;23.334;2022-09-09T05:13:39;93497.28;;;17.71;100.00
12475;BME280;6302;42.624;23.334;2022-09-09T05:16:05;93509.63;;;17.81;100.00
12475;BME280;6302;42.624;23.334;2022-09-09T05:18:32;93515.72;;;17.94;100.00
12475;BME280;6302;42.624;23.334;2022-09-09T05:21:00;93529.13;;;17.94;100.00
12475;BME280;6302;42.624;23.334;2022-09-09T05:23:27;93516.34;;;17.98;100.00
12475;BME280;6302;42.624;23.334;2022-09-09T05:25:55;93511.19;;;17.91;100.00
12475;BME280;6302;42.624;23.334;2022-09-09T05:28:23;93514.84;;;17.97;100.00
12475;BME280;6302;42.624;23.334;2022-09-09T05:31:01;93518.06;;;18.04;100.00
12475;BME280;6302;42.624;23.334;2022-09-09T05:33:29;93514.38;;;18.11;100.00
12475;BME280;6302;42.624;23.334;2022-09-09T05:35:57;93513.28;;;18.21;100.00
12475;BME280;6302;42.624;23.334;2022-09-09T05:38:26;93520.47;;;18.24;100.00
12475;BME280;6302;42.624;23.334;2022-09-09T05:40:53;93517.03;;;18.24;100.00
12475;BME280;6302;42.624;23.334;2022-09-09T05:43:20;93525.91;;;18.33;100.00
12475;BME280;6302;42.624;23.334;2022-09-09T05:45:48;93524.06;;;18.30;100.00
12475;BME280;6302;42.624;23.334;2022-09-09T05:48:15;93529.63;;;18.36;100.00
12475;BME280;6302;42.624;23.334;2022-09-09T05:50:42;93536.38;;;18.40;100.00
12475;BME280;6302;42.624;23.334;2022-09-09T05:53:10;93542.19;;;18.39;100.00
12475;BME280;6302;42.624;23.334;2022-09-09T05:55:38;93536.38;;;18.40;100.00
12475;BME280;6302;42.624;23.334;2022-09-09T05:58:05;93531.09;;;18.49;100.00
12475;BME280;6302;42.624;23.334;2022-09-09T06:00:32;93538.28;;;18.52;100.00
12475;BME280;6302;42.624;23.334;2022-09-09T06:02:59;93528.06;;;18.60;100.00
12475;BME280;6302;42.624;23.334;2022-09-09T06:05:26;93541.69;;;18.65;100.00
12475;BME280;6302;42.624;23.334;2022-09-09T06:07:53;93552.41;;;18.65;100.00
12475;BME280;6302;42.624;23.334;2022-09-09T06:10:21;93551.56;;;18.68;100.00
12475;BME280;6302;42.624;23.334;2022-09-09T06:12:52;93561.41;;;18.71;100.00
12475;BME280;6302;42.624;23.334;2022-09-09T06:15:19;93540.63;;;18.63;100.00
12475;BME280;6302;42.624;23.334;2022-09-09T06:17:46;93553.28;;;18.84;100.00
12475;BME280;6302;42.624;23.334;2022-09-09T06:20:13;93562.50;;;18.96;100.00
12475;BME280;6302;42.624;23.334;2022-09-09T06:22:40;93558.84;;;19.11;100.00
12475;BME280;6302;42.624;23.334;2022-09-09T06:25:08;93560.53;;;19.18;100.00
12475;BME280;6302;42.624;23.334;2022-09-09T06:27:35;93549.53;;;19.25;100.00
12475;BME280;6302;42.624;23.334;2022-09-09T06:30:04;93555.00;;;19.43;100.00
12475;BME280;6302;42.624;23.334;2022-09-09T06:32:30;93553.97;;;19.40;100.00
12475;BME280;6302;42.624;23.334;2022-09-09T06:35:02;93550.59;;;19.58;100.00
12475;BME280;6302;42.624;23.334;2022-09-09T06:37:29;93551.06;;;19.66;100.00
12475;BME280;6302;42.624;23.334;2022-09-09T06:39:57;93549.88;;;19.67;100.00
12475;BME280;6302;42.624;23.334;2022-09-09T06:42:24;93549.78;;;19.79;100.00
12475;BME280;6302;42.624;23.334;2022-09-09T06:44:51;93553.06;;;19.83;100.00
12475;BME280;6302;42.624;23.334;2022-09-09T06:47:20;93553.09;;;19.92;100.00
12475;BME280;6302;42.624;23.334;2022-09-09T06:49:46;93553.53;;;19.91;100.00
12475;BME280;6302;42.624;23.334;2022-09-09T06:52:13;93562.38;;;20.00;100.00
12475;BME280;6302;42.624;23.334;2022-09-09T06:54:40;93566.28;;;20.08;100.00
12475;BME280;6302;42.624;23.334;2022-09-09T06:57:07;93566.31;;;20.18;100.00
12475;BME280;6302;42.624;23.334;2022-09-09T06:59:34;93569.19;;;20.23;100.00
12475;BME280;6302;42.624;23.334;2022-09-09T07:02:00;93562.78;;;20.39;100.00
12475;BME280;6302;42.624;23.334;2022-09-09T07:04:28;93561.88;;;20.42;100.00
12475;BME280;6302;42.624;23.334;2022-09-09T07:06:55;93564.72;;;20.47;100.00
12475;BME280;6302;42.624;23.334;2022-09-09T07:09:22;93573.13;;;20.58;100.00
12475;BME280;6302;42.624;23.334;2022-09-09T07:11:50;93569.25;;;20.68;100.00
12475;BME280;6302;42.624;23.334;2022-09-09T07:14:18;93563.38;;;20.79;100.00
12475;BME280;6302;42.624;23.334;2022-09-09T07:16:46;93556.19;;;20.94;100.00
12475;BME280;6302;42.624;23.334;2022-09-09T07:19:13;93562.78;;;20.93;100.00
12475;BME280;6302;42.624;23.334;2022-09-09T07:21:42;93570.88;;;21.02;100.00
12475;BME280;6302;42.624;23.334;2022-09-09T07:24:09;93560.84;;;21.12;100.00
12475;BME280;6302;42.624;23.334;2022-09-09T07:26:37;93550.22;;;21.17;100.00
12475;BME280;6302;42.624;23.334;2022-09-09T07:29:04;93555.25;;;21.33;100.00
12475;BME280;6302;42.624;23.334;2022-09-09T07:31:33;93555.81;;;21.47;100.00
12475;BME280;6302;42.624;23.334;2022-09-09T07:34:01;93548.88;;;21.64;100.00
12475;BME280;6302;42.624;23.334;2022-09-09T07:36:30;93545.84;;;21.71;100.00
12475;BME280;6302;42.624;23.334;2022-09-09T07:39:00;93545.09;;;21.70;100.00
12475;BME280;6302;42.624;23.334;2022-09-09T07:41:30;93552.09;;;21.86;100.00
12475;BME280;6302;42.624;23.334;2022-09-09T07:44:03;93550.69;;;21.99;100.00
12475;BME280;6302;42.624;23.334;2022-09-09T07:46:30;93557.34;;;22.13;100.00
12475;BME280;6302;42.624;23.334;2022-09-09T07:48:57;93563.56;;;22.28;100.00
12475;BME280;6302;42.624;23.334;2022-09-09T07:51:26;93567.88;;;22.35;100.00
12475;BME280;6302;42.624;23.334;2022-09-09T07:54:00;93570.94;;;22.51;100.00
12475;BME280;6302;42.624;23.334;2022-09-09T07:56:32;93564.59;;;22.54;100.00
12475;BME280;6302;42.624;23.334;2022-09-09T07:59:01;93564.47;;;22.73;100.00
12475;BME280;6302;42.624;23.334;2022-09-09T08:01:31;93559.50;;;22.95;100.00
12475;BME280;6302;42.624;23.334;2022-09-09T08:04:00;93557.84;;;23.12;100.00
12475;BME280;6302;42.624;23.334;2022-09-09T08:06:28;93562.81;;;23.28;98.88
12475;BME280;6302;42.624;23.334;2022-09-09T08:08:55;93561.50;;;23.38;96.78
12475;BME280;6302;42.624;23.334;2022-09-09T08:11:25;93559.91;;;23.46;95.98
12475;BME280;6302;42.624;23.334;2022-09-09T08:13:53;93566.97;;;23.29;96.10
12475;BME280;6302;42.624;23.334;2022-09-09T08:16:22;93569.13;;;23.25;93.88
12475;BME280;6302;42.624;23.334;2022-09-09T08:18:49;93565.84;;;23.21;93.38
12475;BME280;6302;42.624;23.334;2022-09-09T08:21:19;93564.00;;;23.27;94.76
12475;BME280;6302;42.624;23.334;2022-09-09T08:23:47;93560.47;;;23.36;93.42
12475;BME280;6302;42.624;23.334;2022-09-09T08:26:16;93563.28;;;23.41;94.94
12475;BME280;6302;42.624;23.334;2022-09-09T08:28:46;93564.78;;;23.42;93.16
12475;BME280;6302;42.624;23.334;2022-09-09T08:31:15;93558.63;;;23.42;90.79
12475;BME280;6302;42.624;23.334;2022-09-09T08:33:43;93557.50;;;23.48;94.17
12475;BME280;6302;42.624;23.334;2022-09-09T08:36:12;93558.22;;;23.63;92.60
12475;BME280;6302;42.624;23.334;2022-09-09T08:38:41;93555.69;;;23.74;92.11
12475;BME280;6302;42.624;23.334;2022-09-09T08:44:06;93558.06;;;23.52;89.10
12475;BME280;6302;42.624;23.334;2022-09-09T08:46:41;93560.38;;;23.59;90.68
12475;BME280;6302;42.624;23.334;2022-09-09T08:49:23;93555.22;;;23.76;85.82
12475;BME280;6302;42.624;23.334;2022-09-09T08:51:54;93554.94;;;23.74;86.37
12475;BME280;6302;42.624;23.334;2022-09-09T08:54:23;93557.66;;;23.74;89.23
12475;BME280;6302;42.624;23.334;2022-09-09T08:56:52;93544.09;;;23.88;90.15
12475;BME280;6302;42.624;23.334;2022-09-09T08:59:20;93549.94;;;24.02;89.26
12475;BME280;6302;42.624;23.334;2022-09-09T09:01:58;93550.69;;;24.02;80.93
12475;BME280;6302;42.624;23.334;2022-09-09T09:04:58;93543.91;;;23.92;83.09
12475;BME280;6302;42.624;23.334;2022-09-09T09:07:44;93550.88;;;23.99;82.71
12475;BME280;6302;42.624;23.334;2022-09-09T09:10:20;93547.56;;;24.24;81.28
12475;BME280;6302;42.624;23.334;2022-09-09T09:12:53;93558.47;;;24.49;82.60
12475;BME280;6302;42.624;23.334;2022-09-09T09:15:24;93554.75;;;24.67;83.60
12475;BME280;6302;42.624;23.334;2022-09-09T09:17:52;93549.75;;;24.80;82.92
12475;BME280;6302;42.624;23.334;2022-09-09T09:20:24;93548.91;;;24.74;76.26
12475;BME280;6302;42.624;23.334;2022-09-09T09:22:59;93546.56;;;24.62;76.58
12475;BME280;6302;42.624;23.334;2022-09-09T09:25:32;93546.50;;;24.56;77.58
12475;BME280;6302;42.624;23.334;2022-09-09T09:28:02;93537.97;;;24.63;77.21
12475;BME280;6302;42.624;23.334;2022-09-09T09:30:36;93533.88;;;24.73;76.98
12475;BME280;6302;42.624;23.334;2022-09-09T09:33:14;93559.59;;;24.78;75.07
12475;BME280;6302;42.624;23.334;2022-09-09T09:35:44;93547.84;;;24.66;75.09
12475;BME280;6302;42.624;23.334;2022-09-09T09:38:16;93543.38;;;24.63;77.44
12475;BME280;6302;42.624;23.334;2022-09-09T09:40:49;93540.88;;;24.80;76.42
12475;BME280;6302;42.624;23.334;2022-09-09T09:43:20;93541.53;;;24.95;76.97
12475;BME280;6302;42.624;23.334;2022-09-09T09:45:49;93536.53;;;25.13;77.41
12475;BME280;6302;42.624;23.334;2022-09-09T09:48:16;93487.81;;;24.93;71.74
12475;BME280;6302;42.624;23.334;2022-09-09T09:50:48;93524.66;;;25.05;70.52
12475;BME280;6302;42.624;23.334;2022-09-09T09:53:22;93522.72;;;24.86;74.17
12475;BME280;6302;42.624;23.334;2022-09-09T09:55:54;93524.78;;;24.96;74.48
12475;BME280;6302;42.624;23.334;2022-09-09T09:58:22;93521.38;;;25.01;72.81
12475;BME280;6302;42.624;23.334;2022-09-09T10:00:53;93523.25;;;25.15;72.48
12475;BME280;6302;42.624;23.334;2022-09-09T10:03:23;93516.22;;;25.29;70.92
12475;BME280;6302;42.624;23.334;2022-09-09T10:05:50;93511.97;;;25.23;72.50
12475;BME280;6302;42.624;23.334;2022-09-09T10:08:17;93519.16;;;25.26;72.16
12475;BME280;6302;42.624;23.334;2022-09-09T10:10:57;93525.59;;;25.28;69.65
12475;BME280;6302;42.624;23.334;2022-09-09T10:13:34;93524.41;;;25.35;70.54
12475;BME280;6302;42.624;23.334;2022-09-09T10:16:17;93521.19;;;25.31;70.86
12475;BME280;6302;42.624;23.334;2022-09-09T10:18:58;93523.28;;;25.21;72.54
12475;BME280;6302;42.624;23.334;2022-09-09T10:21:38;93528.25;;;25.23;72.86
12475;BME280;6302;42.624;23.334;2022-09-09T10:27:04;93523.09;;;25.25;75.00
12475;BME280;6302;42.624;23.334;2022-09-09T10:29:50;93532.72;;;25.26;72.88
12475;BME280;6302;42.624;23.334;2022-09-09T10:32:46;93530.28;;;25.28;74.08
12475;BME280;6302;42.624;23.334;2022-09-09T10:35:31;93529.53;;;25.27;75.40
12475;BME280;6302;42.624;23.334;2022-09-09T10:38:14;93529.47;;;25.21;74.68
12475;BME280;6302;42.624;23.334;2022-09-09T10:40:46;93526.50;;;25.19;74.23
12475;BME280;6302;42.624;23.334;2022-09-09T10:43:29;93534.13;;;25.15;71.78
12475;BME280;6302;42.624;23.334;2022-09-09T10:46:06;93532.13;;;25.16;70.22
12475;BME280;6302;42.624;23.334;2022-09-09T10:48:44;93536.44;;;25.02;71.21
12475;BME280;6302;42.624;23.334;2022-09-09T10:51:23;93541.28;;;24.93;71.70
12475;BME280;6302;42.624;23.334;2022-09-09T10:53:59;93539.03;;;24.91;72.23
12475;BME280;6302;42.624;23.334;2022-09-09T10:56:33;93530.69;;;24.95;72.56
12475;BME280;6302;42.624;23.334;2022-09-09T10:59:04;93528.47;;;24.93;73.21
12475;BME280;6302;42.624;23.334;2022-09-09T11:01:37;93534.41;;;24.97;75.91
12475;BME280;6302;42.624;23.334;2022-09-09T11:04:15;93531.72;;;24.97;75.87
12475;BME280;6302;42.624;23.334;2022-09-09T11:06:49;93528.03;;;25.00;76.76
12475;BME280;6302;42.624;23.334;2022-09-09T11:09:22;93537.81;;;24.92;74.20
12475;BME280;6302;42.624;23.334;2022-09-09T11:11:52;93537.28;;;24.88;76.30
12475;BME280;6302;42.624;23.334;2022-09-09T11:14:25;93547.84;;;24.86;77.21
12475;BME280;6302;42.624;23.334;2022-09-09T11:16:57;93530.56;;;24.84;78.06
12475;BME280;6302;42.624;23.334;2022-09-09T11:19:31;93531.31;;;24.84;78.47
12475;BME280;6302;42.624;23.334;2022-09-09T11:22:02;93523.78;;;24.94;75.94
12475;BME280;6302;42.624;23.334;2022-09-09T11:24:35;93523.50;;;24.92;75.11
12475;BME280;6302;42.624;23.334;2022-09-09T11:27:08;93526.97;;;24.92;76.78
12475;BME280;6302;42.624;23.334;2022-09-09T11:32:44;93500.38;;;24.96;74.41
12475;BME280;6302;42.624;23.334;2022-09-09T11:35:28;93491.84;;;25.03;74.66
12475;BME280;6302;42.624;23.334;2022-09-09T11:38:16;93481.25;;;25.05;75.94
12475;BME280;6302;42.624;23.334;2022-09-09T11:40:45;93491.28;;;24.99;76.69
12475;BME280;6302;42.624;23.334;2022-09-09T11:43:14;93484.66;;;25.00;76.09
12475;BME280;6302;42.624;23.334;2022-09-09T11:45:51;93482.28;;;25.13;77.71
12475;BME280;6302;42.624;23.334;2022-09-09T11:48:27;93472.78;;;25.23;77.00
12475;BME280;6302;42.624;23.334;2022-09-09T11:51:02;93451.16;;;25.35;76.54
12475;BME280;6302;42.624;23.334;2022-09-09T11:53:31;93433.66;;;25.36;78.24
12475;BME280;6302;42.624;23.334;2022-09-09T11:56:23;93427.97;;;25.34;79.12
12475;BME280;6302;42.624;23.334;2022-09-09T11:58:56;93437.16;;;25.42;81.52
12475;BME280;6302;42.624;23.334;2022-09-09T12:01:29;93434.03;;;25.49;80.54
12475;BME280;6302;42.624;23.334;2022-09-09T12:06:54;93460.00;;;25.61;79.66
12475;BME280;6302;42.624;23.334;2022-09-09T12:09:27;93454.91;;;25.74;79.27
12475;BME280;6302;42.624;23.334;2022-09-09T12:12:07;93447.38;;;25.95;78.09
12475;BME280;6302;42.624;23.334;2022-09-09T12:14:56;93441.97;;;26.00;76.43
12475;BME280;6302;42.624;23.334;2022-09-09T12:17:26;93434.59;;;26.06;74.31
12475;BME280;6302;42.624;23.334;2022-09-09T12:20:01;93444.06;;;26.16;74.41
12475;BME280;6302;42.624;23.334;2022-09-09T12:22:37;93443.34;;;26.21;75.01
12475;BME280;6302;42.624;23.334;2022-09-09T12:25:17;93434.16;;;26.13;72.88
12475;BME280;6302;42.624;23.334;2022-09-09T12:27:55;93435.91;;;26.16;74.38
12475;BME280;6302;42.624;23.334;2022-09-09T12:30:29;93431.72;;;26.21;73.74
12475;BME280;6302;42.624;23.334;2022-09-09T12:33:02;93430.00;;;26.23;74.63
12475;BME280;6302;42.624;23.334;2022-09-09T12:35:35;93422.84;;;26.26;75.40
12475;BME280;6302;42.624;23.334;2022-09-09T12:38:06;93414.44;;;26.29;76.73
12475;BME280;6302;42.624;23.334;2022-09-09T12:40:37;93413.47;;;26.32;76.76
12475;BME280;6302;42.624;23.334;2022-09-09T12:43:17;93410.50;;;26.30;74.77
12475;BME280;6302;42.624;23.334;2022-09-09T12:45:44;93410.50;;;26.30;76.77
12475;BME280;6302;42.624;23.334;2022-09-09T12:48:11;93423.81;;;26.23;73.65
12475;BME280;6302;42.624;23.334;2022-09-09T12:50:44;93425.19;;;26.07;72.65
12475;BME280;6302;42.624;23.334;2022-09-09T12:53:21;93419.28;;;26.03;73.39
12475;BME280;6302;42.624;23.334;2022-09-09T12:55:51;93415.84;;;26.08;74.53
12475;BME280;6302;42.624;23.334;2022-09-09T12:58:19;93404.06;;;26.22;75.87
12475;BME280;6302;42.624;23.334;2022-09-09T13:00:50;93394.69;;;26.23;74.90
12475;BME280;6302;42.624;23.334;2022-09-09T13:03:19;93384.31;;;26.27;74.87
12475;BME280;6302;42.624;23.334;2022-09-09T13:05:47;93387.56;;;26.31;78.66
12475;BME280;6302;42.624;23.334;2022-09-09T13:08:16;93393.72;;;26.37;77.54
12475;BME280;6302;42.624;23.334;2022-09-09T13:10:49;93392.50;;;26.38;74.05
12475;BME280;6302;42.624;23.334;2022-09-09T13:13:21;93384.59;;;26.40;75.05
12475;BME280;6302;42.624;23.334;2022-09-09T13:15:51;93382.63;;;26.41;71.74
12475;BME280;6302;42.624;23.334;2022-09-09T13:18:22;93380.66;;;26.36;72.93
12475;BME280;6302;42.624;23.334;2022-09-09T13:20:50;93382.13;;;26.37;73.20
12475;BME280;6302;42.624;23.334;2022-09-09T13:23:19;93383.84;;;26.34;74.00
12475;BME280;6302;42.624;23.334;2022-09-09T13:25:54;93375.69;;;26.40;74.35
12475;BME280;6302;42.624;23.334;2022-09-09T13:28:23;93381.41;;;26.47;72.90